createdAt,value
2022-12-26T00:00:31.413Z,80.40
2022-12-26T00:02:58.206Z,80.25
2022-12-26T00:05:24.793Z,80.08
2022-12-26T00:07:51.545Z,80.76
2022-12-26T00:10:18.287Z,80.49
2022-12-26T00:12:44.983Z,81.12
2022-12-26T00:15:11.719Z,80.98
2022-12-26T00:17:38.152Z,80.82
2022-12-26T00:20:05.220Z,81.07
2022-12-26T00:22:31.731Z,81.08
2022-12-26T00:24:58.182Z,81.26
2022-12-26T00:27:24.535Z,81.14
2022-12-26T00:29:50.998Z,80.37
2022-12-26T00:32:17.550Z,80.26
2022-12-26T00:34:44.040Z,80.38
2022-12-26T00:37:10.534Z,80.70
2022-12-26T00:39:36.956Z,80.00
2022-12-26T00:42:04.079Z,80.03
2022-12-26T00:44:30.440Z,79.78
2022-12-26T00:46:57.780Z,79.21
2022-12-26T00:49:24.364Z,79.27
2022-12-26T00:51:50.842Z,79.35
2022-12-26T00:54:18.115Z,80.26
2022-12-26T00:56:44.565Z,80.23
2022-12-26T00:59:11.282Z,80.15
2022-12-26T01:01:37.978Z,80.02
2022-12-26T01:04:04.826Z,79.88
2022-12-26T01:06:31.542Z,79.96
2022-12-26T01:08:59.470Z,79.79
2022-12-26T01:11:41.101Z,80.08
2022-12-26T01:14:14.768Z,80.30
2022-12-26T01:16:43.264Z,80.66
2022-12-26T01:19:11.937Z,80.20
2022-12-26T01:21:38.754Z,79.80
2022-12-26T01:24:06.475Z,79.34
2022-12-26T01:26:32.936Z,80.37
2022-12-26T01:28:59.347Z,80.18
2022-12-26T01:31:25.779Z,79.93
2022-12-26T01:33:52.274Z,80.05
2022-12-26T01:36:18.951Z,80.24
2022-12-26T01:38:45.680Z,79.68
2022-12-26T01:41:20.028Z,79.65
2022-12-26T01:43:59.047Z,79.89
2022-12-26T01:46:37.402Z,80.53
2022-12-26T01:49:19.893Z,81.39
2022-12-26T01:51:53.387Z,82.43
2022-12-26T01:54:40.773Z,81.39
2022-12-26T01:57:13.317Z,81.42
2022-12-26T01:59:41.366Z,80.96
2022-12-26T02:02:08.998Z,81.23
2022-12-26T02:04:59.928Z,80.54
2022-12-26T02:07:26.818Z,80.40
2022-12-26T02:09:53.766Z,80.80
2022-12-26T02:12:33.961Z,80.39
2022-12-26T02:15:10.419Z,80.43
2022-12-26T02:17:37.813Z,80.43
2022-12-26T02:20:17.349Z,81.35
2022-12-26T02:23:05.240Z,81.56
2022-12-26T02:25:50.232Z,82.28
2022-12-26T02:28:58.223Z,81.62
2022-12-26T02:32:06.401Z,81.43
2022-12-26T02:34:38.977Z,81.48
2022-12-26T02:37:52.678Z,81.87
2022-12-26T02:40:32.673Z,82.15
2022-12-26T02:43:21.000Z,82.67
2022-12-26T02:46:22.676Z,82.02
2022-12-26T02:48:52.173Z,82.14
2022-12-26T02:52:03.206Z,81.78
2022-12-26T02:55:04.498Z,82.39
2022-12-26T02:58:00.304Z,82.70
2022-12-26T03:00:46.671Z,82.43
2022-12-26T03:03:45.248Z,82.09
2022-12-26T03:06:38.639Z,82.82
2022-12-26T03:09:29.676Z,82.58
2022-12-26T03:12:26.111Z,82.44
2022-12-26T03:14:57.014Z,82.33
2022-12-26T03:17:49.803Z,82.37
2022-12-26T03:20:42.952Z,82.47
2022-12-26T03:23:16.096Z,82.77
2022-12-26T03:26:09.929Z,82.68
2022-12-26T03:28:36.553Z,83.11
2022-12-26T03:31:08.531Z,82.98
2022-12-26T03:33:56.516Z,83.28
2022-12-26T03:36:40.784Z,82.74
2022-12-26T03:39:54.106Z,82.27
2022-12-26T03:42:47.782Z,82.50
2022-12-26T03:45:45.951Z,82.23
2022-12-26T03:48:50.198Z,82.34
2022-12-26T03:51:54.053Z,82.74
2022-12-26T03:55:06.122Z,83.23
2022-12-26T03:57:57.591Z,83.55
2022-12-26T04:00:44.193Z,83.92
2022-12-26T04:03:32.411Z,84.13
2022-12-26T04:06:21.904Z,84.74
2022-12-26T04:12:40.681Z,84.49
2022-12-26T04:15:37.830Z,84.51
2022-12-26T04:18:35.903Z,84.75
2022-12-26T04:21:08.842Z,84.25
2022-12-26T04:24:01.508Z,84.85
2022-12-26T04:26:50.895Z,84.33
2022-12-26T04:29:36.155Z,85.55
2022-12-26T04:32:47.318Z,84.29
2022-12-26T04:36:01.517Z,85.27
2022-12-26T04:38:52.837Z,84.76
2022-12-26T04:41:39.300Z,85.33
2022-12-26T04:44:08.757Z,84.91
2022-12-26T04:46:39.212Z,84.96
2022-12-26T04:49:30.396Z,84.98
2022-12-26T04:51:58.061Z,84.26
2022-12-26T04:54:24.841Z,84.40
2022-12-26T04:56:51.421Z,84.63
2022-12-26T04:59:18.297Z,84.26
2022-12-26T05:02:03.228Z,84.78
2022-12-26T05:04:48.268Z,84.32
2022-12-26T05:07:43.962Z,84.05
2022-12-26T05:10:20.830Z,83.30
2022-12-26T05:12:47.680Z,84.07
2022-12-26T05:15:14.952Z,84.04
2022-12-26T05:18:00.043Z,83.48
2022-12-26T05:20:49.807Z,83.38
2022-12-26T05:23:36.907Z,83.01
2022-12-26T05:26:23.315Z,83.71
2022-12-26T05:28:57.749Z,83.69
2022-12-26T05:31:26.226Z,83.92
2022-12-26T05:34:07.767Z,84.02
2022-12-26T05:36:56.722Z,84.40
2022-12-26T05:39:23.181Z,84.32
2022-12-26T05:41:49.738Z,84.14
2022-12-26T05:44:16.173Z,84.52
2022-12-26T05:46:43.021Z,83.87
2022-12-26T05:49:10.117Z,84.49
2022-12-26T05:51:36.607Z,84.38
2022-12-26T05:54:03.394Z,84.70
2022-12-26T05:56:30.339Z,84.36
2022-12-26T05:59:00.116Z,84.53
2022-12-26T06:01:28.662Z,84.09
2022-12-26T06:03:57.706Z,83.65
2022-12-26T06:06:25.396Z,84.21
2022-12-26T06:08:53.822Z,83.46
2022-12-26T06:11:20.896Z,83.77
2022-12-26T06:13:47.356Z,83.67
2022-12-26T06:16:16.663Z,83.45
2022-12-26T06:18:43.499Z,83.85
2022-12-26T06:21:14.346Z,83.93
2022-12-26T06:23:41.306Z,83.55
2022-12-26T06:26:10.204Z,83.71
2022-12-26T06:28:37.577Z,83.20
2022-12-26T06:31:10.505Z,83.76
2022-12-26T06:33:37.946Z,83.52
2022-12-26T06:36:07.239Z,83.78
2022-12-26T06:38:34.863Z,83.63
2022-12-26T06:41:03.971Z,83.49
2022-12-26T06:43:30.425Z,83.67
2022-12-26T06:46:01.066Z,83.09
2022-12-26T06:48:28.452Z,84.42
2022-12-26T06:50:54.837Z,83.33
2022-12-26T06:53:22.423Z,83.12
2022-12-26T06:55:49.350Z,83.40
2022-12-26T06:58:16.801Z,83.36
2022-12-26T07:00:43.910Z,83.38
2022-12-26T07:03:11.331Z,83.33
2022-12-26T07:05:38.841Z,84.44
2022-12-26T07:08:05.655Z,85.25
2022-12-26T07:10:36.721Z,85.54
2022-12-26T07:13:03.304Z,85.91
2022-12-26T07:15:31.553Z,86.45
2022-12-26T07:17:58.050Z,88.84
2022-12-26T07:20:24.470Z,89.45
2022-12-26T07:22:50.869Z,89.71
2022-12-26T07:25:17.538Z,90.23
2022-12-26T07:27:44.021Z,89.78
2022-12-26T07:30:10.820Z,89.24
2022-12-26T07:32:37.207Z,89.96
2022-12-26T07:35:03.857Z,90.27
2022-12-26T07:37:30.227Z,92.14
2022-12-26T07:39:59.072Z,91.74
2022-12-26T07:42:26.038Z,91.76
2022-12-26T07:44:52.463Z,92.76
2022-12-26T07:47:18.917Z,91.58
2022-12-26T07:49:45.306Z,91.17
2022-12-26T07:52:11.799Z,91.21
2022-12-26T07:54:38.227Z,91.06
2022-12-26T07:57:38.061Z,92.12
2022-12-26T07:59:53.579Z,91.47
2022-12-26T08:02:20.468Z,91.85
2022-12-26T08:04:47.227Z,91.17
2022-12-26T08:07:13.609Z,92.00
2022-12-26T08:09:42.801Z,91.17
2022-12-26T08:12:09.391Z,91.57
2022-12-26T08:14:37.676Z,91.57
2022-12-26T08:17:04.194Z,91.87
2022-12-26T08:19:30.694Z,92.90
2022-12-26T08:21:57.157Z,93.35
2022-12-26T08:24:23.938Z,94.05
2022-12-26T08:26:50.457Z,94.68
2022-12-26T08:29:16.917Z,94.45
2022-12-26T08:31:43.324Z,92.92
2022-12-26T08:34:09.902Z,94.08
2022-12-26T08:36:36.488Z,94.04
2022-12-26T08:39:03.021Z,94.27
2022-12-26T08:41:29.372Z,94.13
2022-12-26T08:46:42.205Z,92.71
2022-12-26T08:49:08.628Z,94.60
2022-12-26T08:51:35.199Z,93.22
2022-12-26T08:54:01.937Z,93.80
2022-12-26T08:56:28.992Z,93.17
2022-12-26T08:58:55.431Z,93.01
2022-12-26T09:01:25.891Z,92.94
2022-12-26T09:03:54.178Z,92.72
2022-12-26T09:06:21.267Z,91.92
2022-12-26T09:08:48.077Z,90.92
2022-12-26T09:11:17.639Z,90.42
2022-12-26T09:13:45.662Z,90.49
2022-12-26T09:16:14.919Z,89.99
2022-12-26T09:18:42.047Z,90.82
2022-12-26T09:21:10.288Z,89.70
2022-12-26T09:23:37.202Z,90.32
2022-12-26T09:26:06.375Z,89.85
2022-12-26T09:28:33.446Z,89.24
2022-12-26T09:31:01.839Z,88.14
2022-12-26T09:33:29.576Z,87.60
2022-12-26T09:36:01.576Z,86.86
2022-12-26T09:38:30.455Z,86.88
2022-12-26T09:41:30.696Z,87.79
2022-12-26T09:44:16.270Z,86.60
2022-12-26T09:46:48.710Z,86.47
2022-12-26T09:49:15.054Z,86.18
2022-12-26T09:51:44.738Z,86.90
2022-12-26T09:54:33.131Z,85.95
2022-12-26T09:57:04.610Z,86.28
2022-12-26T09:59:43.356Z,85.90
2022-12-26T10:02:17.971Z,87.20
2022-12-26T10:04:44.708Z,86.58
2022-12-26T10:07:32.263Z,85.96
2022-12-26T10:10:09.246Z,86.07
2022-12-26T10:13:03.555Z,85.67
2022-12-26T10:15:45.777Z,85.62
2022-12-26T10:18:25.731Z,84.95
2022-12-26T10:21:04.406Z,84.54
2022-12-26T10:23:36.777Z,84.46
2022-12-26T10:26:25.087Z,83.91
2022-12-26T10:29:13.745Z,83.41
2022-12-26T10:31:48.976Z,83.06
2022-12-26T10:34:27.576Z,82.16
2022-12-26T10:37:18.306Z,81.43
2022-12-26T10:40:16.659Z,81.56
2022-12-26T10:42:46.391Z,81.07
2022-12-26T10:45:18.417Z,83.16
2022-12-26T10:47:50.749Z,82.11
2022-12-26T10:50:28.018Z,81.54
2022-12-26T10:52:55.679Z,81.54
2022-12-26T10:55:31.794Z,81.91
2022-12-26T10:58:06.709Z,80.76
2022-12-26T11:00:34.562Z,80.33
2022-12-26T11:03:11.473Z,79.19
2022-12-26T11:08:46.232Z,81.29
2022-12-26T11:11:45.855Z,80.94
2022-12-26T11:14:33.706Z,80.34
2022-12-26T11:17:04.954Z,79.88
2022-12-26T11:19:35.101Z,80.56
2022-12-26T11:22:28.921Z,79.97
2022-12-26T11:25:20.817Z,80.04
2022-12-26T11:27:56.592Z,80.28
2022-12-26T11:30:23.166Z,80.37
2022-12-26T11:33:14.858Z,79.19
2022-12-26T11:35:51.504Z,78.91
2022-12-26T11:38:45.766Z,77.46
2022-12-26T11:41:31.627Z,77.14
2022-12-26T11:44:22.219Z,76.56
2022-12-26T11:47:07.299Z,76.49
2022-12-26T11:49:37.712Z,77.67
2022-12-26T11:52:42.092Z,77.15
2022-12-26T11:55:33.519Z,77.34
2022-12-26T11:58:09.509Z,78.02
2022-12-26T12:00:41.926Z,78.38
2022-12-26T12:03:14.692Z,77.36
2022-12-26T12:06:00.439Z,76.98
2022-12-26T12:09:02.205Z,76.83
2022-12-26T12:11:50.713Z,77.08
2022-12-26T12:14:50.874Z,77.88
2022-12-26T12:17:26.391Z,81.87
2022-12-26T12:20:31.916Z,86.54
2022-12-26T12:23:16.812Z,87.89
2022-12-26T12:25:46.102Z,89.75
2022-12-26T12:28:21.670Z,89.38
2022-12-26T12:30:57.040Z,90.07
2022-12-26T12:33:36.029Z,89.81
2022-12-26T12:36:08.305Z,90.01
2022-12-26T12:38:56.391Z,93.14
2022-12-26T12:41:37.941Z,94.39
2022-12-26T12:44:48.518Z,95.45
2022-12-26T12:47:37.830Z,96.08
2022-12-26T12:50:22.796Z,98.65
2022-12-26T12:53:10.534Z,98.02
2022-12-26T12:55:40.057Z,97.12
2022-12-26T12:58:23.250Z,96.32
2022-12-26T13:00:59.286Z,95.67
2022-12-26T13:04:08.816Z,95.96
2022-12-26T13:06:41.825Z,94.99
2022-12-26T13:09:18.782Z,94.03
2022-12-26T13:11:51.720Z,92.89
2022-12-26T13:14:23.717Z,93.24
2022-12-26T13:17:02.530Z,94.12
2022-12-26T13:19:41.503Z,94.07
2022-12-26T13:22:16.947Z,93.12
2022-12-26T13:24:46.661Z,94.76
2022-12-26T13:27:22.292Z,95.30
2022-12-26T13:29:49.395Z,94.59
2022-12-26T13:32:29.479Z,94.48
2022-12-26T13:34:58.435Z,93.81
2022-12-26T13:37:40.151Z,92.43
2022-12-26T13:40:12.720Z,92.39
2022-12-26T13:43:10.516Z,91.08
2022-12-26T13:45:43.256Z,91.01
2022-12-26T13:48:15.793Z,91.51
2022-12-26T13:50:56.075Z,91.00
2022-12-26T13:53:26.107Z,91.22
2022-12-26T13:56:23.238Z,89.11
2022-12-26T13:59:08.082Z,89.34
2022-12-26T14:01:43.068Z,88.33
2022-12-26T14:04:41.012Z,87.14
2022-12-26T14:07:19.729Z,87.92
2022-12-26T14:09:58.587Z,86.62
2022-12-26T14:12:50.040Z,88.29
2022-12-26T14:15:38.557Z,86.79
2022-12-26T14:18:42.278Z,87.94
2022-12-26T14:21:33.818Z,87.49
2022-12-26T14:24:09.493Z,87.87
2022-12-26T14:26:54.234Z,87.79
2022-12-26T14:29:40.149Z,87.49
2022-12-26T14:32:32.469Z,88.24
2022-12-26T14:35:28.557Z,88.56
2022-12-26T14:38:22.954Z,87.38
2022-12-26T14:41:05.032Z,89.00
2022-12-26T14:43:31.555Z,87.49
2022-12-26T14:45:58.978Z,88.17
2022-12-26T14:48:28.465Z,88.14
2022-12-26T14:51:16.098Z,87.62
2022-12-26T14:53:44.978Z,88.19
2022-12-26T14:56:18.069Z,87.57
2022-12-26T14:58:45.242Z,88.64
2022-12-26T15:01:20.679Z,88.75
2022-12-26T15:04:08.825Z,87.88
2022-12-26T15:06:47.443Z,88.00
2022-12-26T15:09:32.973Z,89.22
2022-12-26T15:12:20.819Z,87.97
2022-12-26T15:15:26.789Z,87.66
2022-12-26T15:18:09.476Z,88.34
2022-12-26T15:21:00.333Z,88.67
2022-12-26T15:23:57.957Z,88.76
2022-12-26T15:26:56.831Z,89.02
2022-12-26T15:29:35.399Z,88.56
2022-12-26T15:32:46.225Z,88.81
2022-12-26T15:35:41.822Z,88.16
2022-12-26T15:38:39.956Z,88.54
2022-12-26T15:41:14.407Z,88.96
2022-12-26T15:43:54.913Z,87.95
2022-12-26T15:46:27.610Z,88.55
2022-12-26T15:49:32.860Z,88.61
2022-12-26T15:52:13.831Z,87.65
2022-12-26T15:54:58.976Z,87.27
2022-12-26T15:57:50.914Z,86.35
2022-12-26T16:00:22.502Z,87.56
2022-12-26T16:03:18.233Z,87.06
2022-12-26T16:05:56.273Z,88.24
2022-12-26T16:08:48.726Z,87.31
2022-12-26T16:11:20.886Z,87.51
2022-12-26T16:14:04.438Z,88.15
2022-12-26T16:16:35.810Z,87.30
2022-12-26T16:19:30.558Z,87.31
2022-12-26T16:22:21.517Z,86.30
2022-12-26T16:24:51.406Z,85.75
2022-12-26T16:27:20.533Z,85.63
2022-12-26T16:29:50.073Z,84.71
2022-12-26T16:32:20.348Z,83.41
2022-12-26T16:34:48.123Z,80.69
2022-12-26T16:37:28.398Z,83.89
2022-12-26T16:40:06.475Z,86.95
2022-12-26T16:42:33.140Z,87.99
2022-12-26T16:45:00.668Z,86.70
2022-12-26T16:47:30.180Z,87.70
2022-12-26T16:49:57.958Z,89.54
2022-12-26T16:53:11.520Z,91.44
2022-12-26T16:55:40.147Z,93.62
2022-12-26T16:58:18.256Z,94.76
2022-12-26T17:01:00.998Z,95.87
2022-12-26T17:03:40.969Z,96.10
2022-12-26T17:06:30.541Z,96.74
2022-12-26T17:08:59.653Z,95.99
2022-12-26T17:11:33.289Z,96.27
2022-12-26T17:14:01.256Z,96.45
2022-12-26T17:16:30.795Z,95.49
2022-12-26T17:19:17.083Z,95.65
2022-12-26T17:22:15.172Z,95.75
2022-12-26T17:24:42.548Z,94.77
2022-12-26T17:27:16.546Z,94.90
2022-12-26T17:30:01.037Z,95.59
2022-12-26T17:32:32.920Z,95.76
2022-12-26T17:35:23.444Z,96.14
2022-12-26T17:37:55.310Z,96.20
2022-12-26T17:40:37.375Z,95.52
2022-12-26T17:43:20.588Z,95.32
2022-12-26T17:45:47.339Z,95.93
2022-12-26T17:48:13.896Z,94.71
2022-12-26T17:50:46.576Z,95.04
2022-12-26T17:53:12.967Z,95.07
2022-12-26T17:55:40.007Z,95.05
2022-12-26T17:58:13.064Z,94.17
2022-12-26T18:00:40.924Z,94.17
2022-12-26T18:03:07.453Z,93.52
2022-12-26T18:05:34.441Z,93.33
2022-12-26T18:08:01.443Z,92.66
2022-12-26T18:10:31.470Z,92.93
2022-12-26T18:12:58.979Z,92.40
2022-12-26T18:15:27.874Z,91.81
2022-12-26T18:17:54.543Z,92.46
2022-12-26T18:20:28.265Z,92.33
2022-12-26T18:22:55.858Z,91.61
2022-12-26T18:25:29.881Z,92.30
2022-12-26T18:27:56.407Z,91.75
2022-12-26T18:30:25.333Z,91.36
2022-12-26T18:32:54.812Z,91.12
2022-12-26T18:35:21.652Z,90.05
2022-12-26T18:37:52.144Z,88.71
2022-12-26T18:40:29.444Z,89.70
2022-12-26T18:42:56.527Z,89.09
2022-12-26T18:45:23.731Z,90.04
2022-12-26T18:47:50.518Z,89.98
2022-12-26T18:50:18.255Z,88.11
2022-12-26T18:52:48.621Z,87.16
2022-12-26T18:55:18.208Z,87.57
2022-12-26T18:57:45.100Z,87.57
2022-12-26T19:00:14.583Z,87.03
2022-12-26T19:02:41.746Z,88.09
2022-12-26T19:05:19.381Z,87.62
2022-12-26T19:07:48.463Z,86.88
2022-12-26T19:10:17.933Z,86.47
2022-12-26T19:12:44.881Z,87.55
2022-12-26T19:15:12.464Z,86.36
2022-12-26T19:17:45.091Z,85.40
2022-12-26T19:20:21.574Z,84.54
2022-12-26T19:22:49.723Z,85.35
2022-12-26T19:25:17.824Z,85.68
2022-12-26T19:27:45.313Z,84.15
2022-12-26T19:30:14.981Z,84.78
2022-12-26T19:32:43.203Z,83.99
2022-12-26T19:35:12.925Z,82.81
2022-12-26T19:37:40.069Z,82.51
2022-12-26T19:40:07.680Z,82.85
2022-12-26T19:42:39.978Z,83.84
2022-12-26T19:45:09.490Z,84.36
2022-12-26T19:47:36.169Z,84.67
2022-12-26T19:50:04.724Z,85.78
2022-12-26T19:52:31.370Z,85.27
2022-12-26T19:54:57.947Z,85.63
2022-12-26T19:57:24.443Z,85.31
2022-12-26T19:59:53.085Z,86.78
2022-12-26T20:02:19.795Z,86.83
2022-12-26T20:04:46.685Z,86.13
2022-12-26T20:07:16.859Z,86.77
2022-12-26T20:09:46.141Z,86.24
2022-12-26T20:12:12.575Z,86.93
2022-12-26T20:14:41.465Z,87.11
2022-12-26T20:17:12.307Z,87.48
2022-12-26T20:19:39.317Z,86.42
2022-12-26T20:22:06.498Z,86.22
2022-12-26T20:24:33.637Z,85.91
2022-12-26T20:27:00.065Z,83.57
2022-12-26T20:29:26.619Z,82.20
2022-12-26T20:31:55.285Z,82.27
2022-12-26T20:34:24.201Z,81.84
2022-12-26T20:36:53.625Z,81.64
2022-12-26T20:39:22.256Z,81.93
2022-12-26T20:41:48.894Z,80.53
2022-12-26T20:44:16.938Z,80.93
2022-12-26T20:46:44.427Z,80.41
2022-12-26T20:49:11.444Z,80.98
2022-12-26T20:51:40.612Z,81.77
2022-12-26T20:54:08.925Z,80.72
2022-12-26T20:56:36.942Z,80.96
2022-12-26T20:59:05.059Z,81.73
2022-12-26T21:01:35.188Z,80.50
2022-12-26T21:04:02.282Z,81.69
2022-12-26T21:06:39.239Z,81.68
2022-12-26T21:09:06.576Z,82.77
2022-12-26T21:11:38.175Z,82.10
2022-12-26T21:14:08.391Z,82.24
2022-12-26T21:16:58.580Z,81.46
2022-12-26T21:19:29.260Z,81.97
2022-12-26T21:21:56.637Z,82.45
2022-12-26T21:24:26.570Z,81.75
2022-12-26T21:26:55.864Z,82.33
2022-12-26T21:29:30.563Z,83.17
2022-12-26T21:31:57.751Z,83.09
2022-12-26T21:34:29.340Z,82.83
2022-12-26T21:37:15.774Z,82.44
2022-12-26T21:39:51.725Z,82.01
2022-12-26T21:42:18.537Z,82.18
2022-12-26T21:44:45.032Z,82.55
2022-12-26T21:47:12.345Z,81.69
2022-12-26T21:49:38.738Z,81.74
2022-12-26T21:52:10.936Z,81.47
2022-12-26T21:54:56.154Z,81.63
2022-12-26T21:57:27.787Z,81.85
2022-12-26T21:59:57.305Z,83.36
2022-12-26T22:02:54.365Z,83.07
2022-12-26T22:05:29.351Z,83.50
2022-12-26T22:11:05.536Z,83.15
2022-12-26T22:13:49.201Z,82.97
2022-12-26T22:16:18.434Z,84.30
2022-12-26T22:18:47.092Z,85.38
2022-12-26T22:21:23.677Z,84.39
2022-12-26T22:23:51.511Z,84.15
2022-12-26T22:26:22.800Z,84.34
2022-12-26T22:28:51.683Z,84.95
2022-12-26T22:31:20.208Z,84.59
2022-12-26T22:33:56.366Z,84.63
2022-12-26T22:36:22.899Z,84.63
2022-12-26T22:38:51.819Z,84.26
2022-12-26T22:41:18.405Z,84.35
2022-12-26T22:43:48.145Z,84.43
2022-12-26T22:46:15.090Z,84.43
2022-12-26T22:48:42.010Z,84.73
2022-12-26T22:51:09.756Z,84.50
2022-12-26T22:53:36.146Z,85.13
2022-12-26T22:56:06.859Z,84.48
2022-12-26T22:58:36.546Z,84.99
2022-12-26T23:01:08.107Z,84.77
2022-12-26T23:03:34.647Z,84.74
2022-12-26T23:06:04.532Z,84.40
2022-12-26T23:08:31.250Z,84.22
2022-12-26T23:10:58.664Z,84.19
2022-12-26T23:13:30.892Z,85.28
2022-12-26T23:16:13.334Z,85.58
2022-12-26T23:19:08.512Z,84.79
2022-12-26T23:21:39.144Z,85.41
2022-12-26T23:24:16.254Z,85.10
2022-12-26T23:26:45.545Z,85.07
2022-12-26T23:29:35.554Z,85.25
2022-12-26T23:32:02.555Z,84.98
2022-12-26T23:34:32.152Z,84.94
2022-12-26T23:37:08.980Z,85.02
2022-12-26T23:39:41.305Z,85.02
2022-12-26T23:42:07.963Z,84.99
2022-12-26T23:44:40.529Z,85.10
2022-12-26T23:47:11.375Z,84.64
2022-12-26T23:49:40.831Z,84.53
2022-12-26T23:52:07.277Z,84.28
2022-12-26T23:54:39.340Z,84.05
2022-12-26T23:57:05.803Z,83.14
2022-12-26T23:59:32.227Z,82.87
